sensor_id;sensor_type;location;lat;lon;timestamp;P1;durP1;ratioP1;P2;durP2;ratioP2
1446;SDS011;717;51.522;7.266;2024-01-15T00:02:35;21.47;;;11.27;;
1446;SDS011;717;51.522;7.266;2024-01-15T00:05:06;32.43;;;14.67;;
1446;SDS011;717;51.522;7.266;2024-01-15T00:07:39;27.83;;;13.47;;
1446;SDS011;717;51.522;7.266;2024-01-15T00:10:09;37.63;;;16.47;;
1446;SDS011;717;51.522;7.266;2024-01-15T00:12:39;36.77;;;17.60;;
1446;SDS011;717;51.522;7.266;2024-01-15T00:15:09;37.57;;;15.87;;
1446;SDS011;717;51.522;7.266;2024-01-15T00:17:39;36.37;;;16.87;;
1446;SDS011;717;51.522;7.266;2024-01-15T00:20:09;43.80;;;23.27;;
1446;SDS011;717;51.522;7.266;2024-01-15T00:22:43;30.40;;;15.90;;
1446;SDS011;717;51.522;7.266;2024-01-15T00:25:13;46.63;;;20.83;;
1446;SDS011;717;51.522;7.266;2024-01-15T00:27:43;34.27;;;16.97;;
1446;SDS011;717;51.522;7.266;2024-01-15T00:30:13;30.03;;;15.40;;
1446;SDS011;717;51.522;7.266;2024-01-15T00:32:43;36.00;;;17.03;;
1446;SDS011;717;51.522;7.266;2024-01-15T00:35:14;27.43;;;14.77;;
1446;SDS011;717;51.522;7.266;2024-01-15T00:37:46;27.67;;;13.10;;
1446;SDS011;717;51.522;7.266;2024-01-15T00:40:16;37.40;;;17.03;;
1446;SDS011;717;51.522;7.266;2024-01-15T00:42:46;38.63;;;18.93;;
1446;SDS011;717;51.522;7.266;2024-01-15T00:45:16;39.63;;;17.93;;
1446;SDS011;717;51.522;7.266;2024-01-15T00:47:46;42.33;;;19.50;;
1446;SDS011;717;51.522;7.266;2024-01-15T00:50:16;23.97;;;9.83;;
1446;SDS011;717;51.522;7.266;2024-01-15T00:52:49;34.10;;;16.03;;
1446;SDS011;717;51.522;7.266;2024-01-15T00:55:19;38.03;;;16.73;;
1446;SDS011;717;51.522;7.266;2024-01-15T00:57:49;38.17;;;17.17;;
1446;SDS011;717;51.522;7.266;2024-01-15T01:00:19;31.60;;;16.07;;
1446;SDS011;717;51.522;7.266;2024-01-15T01:02:49;33.50;;;16.97;;
1446;SDS011;717;51.522;7.266;2024-01-15T01:05:20;32.83;;;14.80;;
1446;SDS011;717;51.522;7.266;2024-01-15T01:07:52;23.33;;;11.97;;
1446;SDS011;717;51.522;7.266;2024-01-15T01:10:22;35.00;;;15.83;;
1446;SDS011;717;51.522;7.266;2024-01-15T01:12:53;43.50;;;20.53;;
1446;SDS011;717;51.522;7.266;2024-01-15T01:15:23;25.03;;;12.90;;
1446;SDS011;717;51.522;7.266;2024-01-15T01:17:54;33.00;;;18.23;;
1446;SDS011;717;51.522;7.266;2024-01-15T01:20:24;27.80;;;15.00;;
1446;SDS011;717;51.522;7.266;2024-01-15T01:22:57;36.37;;;17.37;;
1446;SDS011;717;51.522;7.266;2024-01-15T01:25:27;34.77;;;15.67;;
1446;SDS011;717;51.522;7.266;2024-01-15T01:27:57;31.10;;;14.43;;
1446;SDS011;717;51.522;7.266;2024-01-15T01:30:27;26.40;;;12.87;;
1446;SDS011;717;51.522;7.266;2024-01-15T01:32:57;24.07;;;13.33;;
1446;SDS011;717;51.522;7.266;2024-01-15T01:35:27;25.87;;;13.60;;
1446;SDS011;717;51.522;7.266;2024-01-15T01:37:59;31.53;;;17.73;;
1446;SDS011;717;51.522;7.266;2024-01-15T01:40:29;25.03;;;13.47;;
1446;SDS011;717;51.522;7.266;2024-01-15T01:42:59;30.00;;;16.30;;
1446;SDS011;717;51.522;7.266;2024-01-15T01:45:29;23.03;;;13.40;;
1446;SDS011;717;51.522;7.266;2024-01-15T01:48:00;29.63;;;14.80;;
1446;SDS011;717;51.522;7.266;2024-01-15T01:50:30;27.90;;;12.57;;
1446;SDS011;717;51.522;7.266;2024-01-15T01:53:03;23.43;;;11.73;;
1446;SDS011;717;51.522;7.266;2024-01-15T01:55:34;28.67;;;13.70;;
1446;SDS011;717;51.522;7.266;2024-01-15T01:58:05;25.33;;;13.80;;
1446;SDS011;717;51.522;7.266;2024-01-15T02:00:36;28.50;;;13.43;;
1446;SDS011;717;51.522;7.266;2024-01-15T02:03:07;22.77;;;12.10;;
1446;SDS011;717;51.522;7.266;2024-01-15T02:05:38;24.93;;;12.93;;
1446;SDS011;717;51.522;7.266;2024-01-15T02:08:12;20.50;;;11.07;;
1446;SDS011;717;51.522;7.266;2024-01-15T02:10:42;31.23;;;14.97;;
1446;SDS011;717;51.522;7.266;2024-01-15T02:13:12;29.97;;;15.30;;
1446;SDS011;717;51.522;7.266;2024-01-15T02:15:42;24.20;;;12.83;;
1446;SDS011;717;51.522;7.266;2024-01-15T02:18:12;27.90;;;14.23;;
1446;SDS011;717;51.522;7.266;2024-01-15T02:20:42;20.97;;;10.73;;
1446;SDS011;717;51.522;7.266;2024-01-15T02:23:15;24.77;;;13.03;;
1446;SDS011;717;51.522;7.266;2024-01-15T02:25:46;23.00;;;12.17;;
1446;SDS011;717;51.522;7.266;2024-01-15T02:28:17;25.63;;;13.73;;
1446;SDS011;717;51.522;7.266;2024-01-15T02:30:47;27.73;;;14.90;;
1446;SDS011;717;51.522;7.266;2024-01-15T02:33:17;22.50;;;12.87;;
1446;SDS011;717;51.522;7.266;2024-01-15T02:35:47;27.70;;;13.23;;
1446;SDS011;717;51.522;7.266;2024-01-15T02:38:19;15.20;;;8.07;;
1446;SDS011;717;51.522;7.266;2024-01-15T02:40:50;25.77;;;14.10;;
1446;SDS011;717;51.522;7.266;2024-01-15T02:43:20;23.83;;;13.10;;
1446;SDS011;717;51.522;7.266;2024-01-15T02:45:50;22.73;;;11.50;;
1446;SDS011;717;51.522;7.266;2024-01-15T02:48:20;25.90;;;14.97;;
1446;SDS011;717;51.522;7.266;2024-01-15T02:50:50;17.30;;;9.27;;
1446;SDS011;717;51.522;7.266;2024-01-15T02:53:23;20.77;;;11.43;;
1446;SDS011;717;51.522;7.266;2024-01-15T02:55:53;24.20;;;11.93;;
1446;SDS011;717;51.522;7.266;2024-01-15T02:58:23;22.27;;;11.00;;
1446;SDS011;717;51.522;7.266;2024-01-15T03:00:53;23.00;;;12.37;;
1446;SDS011;717;51.522;7.266;2024-01-15T03:03:23;23.77;;;13.80;;
1446;SDS011;717;51.522;7.266;2024-01-15T03:05:53;28.83;;;12.93;;
1446;SDS011;717;51.522;7.266;2024-01-15T03:08:26;20.73;;;10.50;;
1446;SDS011;717;51.522;7.266;2024-01-15T03:10:56;16.37;;;7.63;;
1446;SDS011;717;51.522;7.266;2024-01-15T03:13:25;22.47;;;10.77;;
1446;SDS011;717;51.522;7.266;2024-01-15T03:15:55;27.83;;;12.33;;
1446;SDS011;717;51.522;7.266;2024-01-15T03:18:25;19.63;;;11.17;;
1446;SDS011;717;51.522;7.266;2024-01-15T03:20:56;20.43;;;11.57;;
1446;SDS011;717;51.522;7.266;2024-01-15T03:23:30;21.23;;;10.47;;
1446;SDS011;717;51.522;7.266;2024-01-15T03:26:00;28.47;;;14.57;;
1446;SDS011;717;51.522;7.266;2024-01-15T03:28:30;24.13;;;11.63;;
1446;SDS011;717;51.522;7.266;2024-01-15T03:31:00;24.60;;;11.97;;
1446;SDS011;717;51.522;7.266;2024-01-15T03:33:30;27.43;;;12.70;;
1446;SDS011;717;51.522;7.266;2024-01-15T03:36:00;19.70;;;8.97;;
1446;SDS011;717;51.522;7.266;2024-01-15T03:38:33;17.07;;;9.77;;
1446;SDS011;717;51.522;7.266;2024-01-15T03:41:03;16.97;;;8.70;;
1446;SDS011;717;51.522;7.266;2024-01-15T03:43:33;24.97;;;11.67;;
1446;SDS011;717;51.522;7.266;2024-01-15T03:46:03;22.23;;;10.10;;
1446;SDS011;717;51.522;7.266;2024-01-15T03:48:33;20.27;;;10.43;;
1446;SDS011;717;51.522;7.266;2024-01-15T03:51:04;21.97;;;10.97;;
1446;SDS011;717;51.522;7.266;2024-01-15T03:53:36;11.47;;;4.57;;
1446;SDS011;717;51.522;7.266;2024-01-15T03:56:07;16.60;;;8.70;;
1446;SDS011;717;51.522;7.266;2024-01-15T03:58:37;15.33;;;9.17;;
1446;SDS011;717;51.522;7.266;2024-01-15T04:01:07;19.10;;;11.20;;
1446;SDS011;717;51.522;7.266;2024-01-15T04:03:38;17.17;;;9.77;;
1446;SDS011;717;51.522;7.266;2024-01-15T04:06:09;17.03;;;9.30;;
1446;SDS011;717;51.522;7.266;2024-01-15T04:08:41;21.17;;;9.20;;
1446;SDS011;717;51.522;7.266;2024-01-15T04:11:11;19.20;;;9.27;;
1446;SDS011;717;51.522;7.266;2024-01-15T04:13:41;25.13;;;14.23;;
1446;SDS011;717;51.522;7.266;2024-01-15T04:16:11;14.53;;;8.73;;
1446;SDS011;717;51.522;7.266;2024-01-15T04:18:41;19.13;;;9.00;;
1446;SDS011;717;51.522;7.266;2024-01-15T04:21:11;7.50;;;5.90;;
1446;SDS011;717;51.522;7.266;2024-01-15T04:23:44;19.87;;;9.30;;
1446;SDS011;717;51.522;7.266;2024-01-15T04:26:14;10.17;;;6.90;;
1446;SDS011;717;51.522;7.266;2024-01-15T04:28:44;13.87;;;6.97;;
1446;SDS011;717;51.522;7.266;2024-01-15T04:31:20;18.20;;;10.40;;
1446;SDS011;717;51.522;7.266;2024-01-15T04:33:51;21.43;;;9.07;;
1446;SDS011;717;51.522;7.266;2024-01-15T04:36:22;17.27;;;7.93;;
1446;SDS011;717;51.522;7.266;2024-01-15T04:38:54;10.67;;;5.87;;
1446;SDS011;717;51.522;7.266;2024-01-15T04:41:24;21.27;;;10.40;;
1446;SDS011;717;51.522;7.266;2024-01-15T04:43:54;10.63;;;6.63;;
1446;SDS011;717;51.522;7.266;2024-01-15T04:46:24;14.63;;;7.03;;
1446;SDS011;717;51.522;7.266;2024-01-15T04:48:54;15.17;;;8.20;;
1446;SDS011;717;51.522;7.266;2024-01-15T04:51:24;13.17;;;7.70;;
1446;SDS011;717;51.522;7.266;2024-01-15T04:53:57;17.97;;;9.40;;
1446;SDS011;717;51.522;7.266;2024-01-15T04:56:27;17.87;;;11.40;;
1446;SDS011;717;51.522;7.266;2024-01-15T04:58:57;10.17;;;6.00;;
1446;SDS011;717;51.522;7.266;2024-01-15T05:01:30;22.80;;;9.73;;
1446;SDS011;717;51.522;7.266;2024-01-15T05:04:00;19.03;;;9.37;;
1446;SDS011;717;51.522;7.266;2024-01-15T05:06:31;14.83;;;9.23;;
1446;SDS011;717;51.522;7.266;2024-01-15T05:09:03;13.73;;;8.97;;
1446;SDS011;717;51.522;7.266;2024-01-15T05:11:33;12.83;;;7.63;;
1446;SDS011;717;51.522;7.266;2024-01-15T05:14:03;14.57;;;8.57;;
1446;SDS011;717;51.522;7.266;2024-01-15T05:16:33;10.03;;;5.43;;
1446;SDS011;717;51.522;7.266;2024-01-15T05:19:03;18.60;;;10.10;;
1446;SDS011;717;51.522;7.266;2024-01-15T05:21:34;16.30;;;9.43;;
1446;SDS011;717;51.522;7.266;2024-01-15T05:24:06;16.93;;;10.53;;
1446;SDS011;717;51.522;7.266;2024-01-15T05:26:37;5.83;;;4.90;;
1446;SDS011;717;51.522;7.266;2024-01-15T05:29:07;18.20;;;11.87;;
1446;SDS011;717;51.522;7.266;2024-01-15T05:31:37;17.30;;;7.87;;
1446;SDS011;717;51.522;7.266;2024-01-15T05:34:07;12.70;;;8.13;;
1446;SDS011;717;51.522;7.266;2024-01-15T05:36:37;13.80;;;8.63;;
1446;SDS011;717;51.522;7.266;2024-01-15T05:39:10;17.70;;;9.10;;
1446;SDS011;717;51.522;7.266;2024-01-15T05:41:40;7.07;;;3.77;;
1446;SDS011;717;51.522;7.266;2024-01-15T05:44:10;14.60;;;9.67;;
1446;SDS011;717;51.522;7.266;2024-01-15T05:46:40;16.00;;;8.83;;
1446;SDS011;717;51.522;7.266;2024-01-15T05:49:10;17.97;;;8.83;;
1446;SDS011;717;51.522;7.266;2024-01-15T05:51:41;17.67;;;9.20;;
1446;SDS011;717;51.522;7.266;2024-01-15T05:54:13;13.63;;;7.87;;
1446;SDS011;717;51.522;7.266;2024-01-15T05:56:43;12.93;;;7.10;;
1446;SDS011;717;51.522;7.266;2024-01-15T05:59:13;15.63;;;8.00;;
1446;SDS011;717;51.522;7.266;2024-01-15T06:01:43;14.90;;;8.93;;
1446;SDS011;717;51.522;7.266;2024-01-15T06:04:13;14.80;;;8.53;;
1446;SDS011;717;51.522;7.266;2024-01-15T06:06:43;13.97;;;5.80;;
1446;SDS011;717;51.522;7.266;2024-01-15T06:09:16;11.17;;;6.73;;
1446;SDS011;717;51.522;7.266;2024-01-15T06:11:46;11.33;;;6.63;;
1446;SDS011;717;51.522;7.266;2024-01-15T06:14:16;10.87;;;5.40;;
1446;SDS011;717;51.522;7.266;2024-01-15T06:16:46;14.27;;;7.83;;
1446;SDS011;717;51.522;7.266;2024-01-15T06:19:16;11.73;;;7.47;;
1446;SDS011;717;51.522;7.266;2024-01-15T06:21:46;11.87;;;7.33;;
1446;SDS011;717;51.522;7.266;2024-01-15T06:24:19;12.37;;;7.13;;
1446;SDS011;717;51.522;7.266;2024-01-15T06:26:49;14.23;;;6.17;;
1446;SDS011;717;51.522;7.266;2024-01-15T06:29:19;11.27;;;5.30;;
1446;SDS011;717;51.522;7.266;2024-01-15T06:31:50;12.00;;;7.93;;
1446;SDS011;717;51.522;7.266;2024-01-15T06:34:21;13.97;;;7.60;;
1446;SDS011;717;51.522;7.266;2024-01-15T06:36:51;11.50;;;6.07;;
1446;SDS011;717;51.522;7.266;2024-01-15T06:39:23;12.77;;;7.17;;
1446;SDS011;717;51.522;7.266;2024-01-15T06:41:53;11.17;;;5.57;;
1446;SDS011;717;51.522;7.266;2024-01-15T06:44:23;12.07;;;6.97;;
1446;SDS011;717;51.522;7.266;2024-01-15T06:46:53;14.83;;;8.07;;
1446;SDS011;717;51.522;7.266;2024-01-15T06:49:29;14.20;;;7.20;;
1446;SDS011;717;51.522;7.266;2024-01-15T06:51:59;15.10;;;9.57;;
1446;SDS011;717;51.522;7.266;2024-01-15T06:54:31;14.20;;;8.33;;
1446;SDS011;717;51.522;7.266;2024-01-15T06:57:01;14.93;;;8.70;;
1446;SDS011;717;51.522;7.266;2024-01-15T06:59:33;12.00;;;7.80;;
1446;SDS011;717;51.522;7.266;2024-01-15T07:02:03;13.37;;;8.27;;
1446;SDS011;717;51.522;7.266;2024-01-15T07:04:34;14.60;;;8.57;;
1446;SDS011;717;51.522;7.266;2024-01-15T07:07:09;14.80;;;8.50;;
1446;SDS011;717;51.522;7.266;2024-01-15T07:09:41;15.03;;;9.20;;
1446;SDS011;717;51.522;7.266;2024-01-15T07:12:11;18.17;;;8.90;;
1446;SDS011;717;51.522;7.266;2024-01-15T07:14:43;15.83;;;8.87;;
1446;SDS011;717;51.522;7.266;2024-01-15T07:17:13;13.90;;;9.87;;
1446;SDS011;717;51.522;7.266;2024-01-15T07:19:43;13.13;;;9.30;;
1446;SDS011;717;51.522;7.266;2024-01-15T07:22:13;15.03;;;10.77;;
1446;SDS011;717;51.522;7.266;2024-01-15T07:24:46;12.40;;;6.87;;
1446;SDS011;717;51.522;7.266;2024-01-15T07:27:16;14.33;;;9.67;;
1446;SDS011;717;51.522;7.266;2024-01-15T07:29:46;12.83;;;8.90;;
1446;SDS011;717;51.522;7.266;2024-01-15T07:32:16;10.13;;;6.83;;
1446;SDS011;717;51.522;7.266;2024-01-15T07:34:47;14.40;;;8.77;;
1446;SDS011;717;51.522;7.266;2024-01-15T07:37:17;11.33;;;7.87;;
1446;SDS011;717;51.522;7.266;2024-01-15T07:39:50;12.10;;;7.80;;
1446;SDS011;717;51.522;7.266;2024-01-15T07:42:20;13.80;;;10.47;;
1446;SDS011;717;51.522;7.266;2024-01-15T07:44:50;12.23;;;7.50;;
1446;SDS011;717;51.522;7.266;2024-01-15T07:47:20;12.67;;;8.70;;
1446;SDS011;717;51.522;7.266;2024-01-15T07:49:50;9.37;;;7.17;;
1446;SDS011;717;51.522;7.266;2024-01-15T07:52:20;12.27;;;6.67;;
1446;SDS011;717;51.522;7.266;2024-01-15T07:54:53;7.73;;;6.07;;
1446;SDS011;717;51.522;7.266;2024-01-15T07:57:23;7.33;;;6.00;;
1446;SDS011;717;51.522;7.266;2024-01-15T07:59:53;11.47;;;7.17;;
1446;SDS011;717;51.522;7.266;2024-01-15T08:02:23;7.53;;;5.73;;
1446;SDS011;717;51.522;7.266;2024-01-15T08:04:53;11.60;;;7.70;;
1446;SDS011;717;51.522;7.266;2024-01-15T08:07:24;6.13;;;4.73;;
1446;SDS011;717;51.522;7.266;2024-01-15T08:09:56;8.60;;;7.27;;
1446;SDS011;717;51.522;7.266;2024-01-15T08:12:27;11.57;;;7.10;;
1446;SDS011;717;51.522;7.266;2024-01-15T08:14:57;9.67;;;5.67;;
1446;SDS011;717;51.522;7.266;2024-01-15T08:17:27;9.17;;;6.27;;
1446;SDS011;717;51.522;7.266;2024-01-15T08:19:58;13.57;;;5.70;;
1446;SDS011;717;51.522;7.266;2024-01-15T08:22:30;7.03;;;3.83;;
1446;SDS011;717;51.522;7.266;2024-01-15T08:25:03;6.67;;;3.57;;
1446;SDS011;717;51.522;7.266;2024-01-15T08:27:33;7.07;;;4.90;;
1446;SDS011;717;51.522;7.266;2024-01-15T08:30:04;6.57;;;3.47;;
1446;SDS011;717;51.522;7.266;2024-01-15T08:32:35;8.00;;;4.93;;
1446;SDS011;717;51.522;7.266;2024-01-15T08:35:09;6.10;;;3.97;;
1446;SDS011;717;51.522;7.266;2024-01-15T08:37:39;4.53;;;2.60;;
1446;SDS011;717;51.522;7.266;2024-01-15T08:40:12;6.63;;;5.87;;
1446;SDS011;717;51.522;7.266;2024-01-15T08:42:42;5.87;;;3.90;;
1446;SDS011;717;51.522;7.266;2024-01-15T08:45:13;5.63;;;3.93;;
1446;SDS011;717;51.522;7.266;2024-01-15T08:47:43;6.33;;;4.83;;
1446;SDS011;717;51.522;7.266;2024-01-15T08:50:13;7.93;;;5.70;;
1446;SDS011;717;51.522;7.266;2024-01-15T08:52:43;9.10;;;7.67;;
1446;SDS011;717;51.522;7.266;2024-01-15T08:55:16;9.00;;;6.00;;
1446;SDS011;717;51.522;7.266;2024-01-15T08:57:46;7.10;;;5.63;;
1446;SDS011;717;51.522;7.266;2024-01-15T09:00:16;7.70;;;6.80;;
1446;SDS011;717;51.522;7.266;2024-01-15T09:02:47;9.53;;;6.80;;
1446;SDS011;717;51.522;7.266;2024-01-15T09:05:17;8.63;;;6.07;;
1446;SDS011;717;51.522;7.266;2024-01-15T09:07:47;12.53;;;8.53;;
1446;SDS011;717;51.522;7.266;2024-01-15T09:10:21;10.57;;;7.37;;
1446;SDS011;717;51.522;7.266;2024-01-15T09:12:51;12.90;;;9.27;;
1446;SDS011;717;51.522;7.266;2024-01-15T09:15:21;13.17;;;9.70;;
1446;SDS011;717;51.522;7.266;2024-01-15T09:17:51;13.70;;;10.53;;
1446;SDS011;717;51.522;7.266;2024-01-15T09:20:21;14.63;;;9.77;;
1446;SDS011;717;51.522;7.266;2024-01-15T09:22:52;15.47;;;10.27;;
1446;SDS011;717;51.522;7.266;2024-01-15T09:25:25;12.70;;;9.67;;
1446;SDS011;717;51.522;7.266;2024-01-15T09:27:55;13.20;;;9.93;;
1446;SDS011;717;51.522;7.266;2024-01-15T09:30:25;12.70;;;9.47;;
1446;SDS011;717;51.522;7.266;2024-01-15T09:32:55;12.60;;;7.20;;
1446;SDS011;717;51.522;7.266;2024-01-15T09:35:25;8.20;;;5.40;;
1446;SDS011;717;51.522;7.266;2024-01-15T09:37:55;11.53;;;8.30;;
1446;SDS011;717;51.522;7.266;2024-01-15T09:40:29;7.83;;;5.33;;
1446;SDS011;717;51.522;7.266;2024-01-15T09:43:02;11.70;;;8.30;;
1446;SDS011;717;51.522;7.266;2024-01-15T09:45:32;11.70;;;7.87;;
1446;SDS011;717;51.522;7.266;2024-01-15T09:48:03;13.53;;;9.07;;
1446;SDS011;717;51.522;7.266;2024-01-15T09:50:34;10.23;;;5.63;;
1446;SDS011;717;51.522;7.266;2024-01-15T09:53:04;11.90;;;7.83;;
1446;SDS011;717;51.522;7.266;2024-01-15T09:55:38;13.23;;;7.93;;
1446;SDS011;717;51.522;7.266;2024-01-15T09:58:08;11.47;;;7.07;;
1446;SDS011;717;51.522;7.266;2024-01-15T10:00:39;6.27;;;4.53;;
1446;SDS011;717;51.522;7.266;2024-01-15T10:03:12;6.90;;;5.30;;
1446;SDS011;717;51.522;7.266;2024-01-15T10:05:43;8.43;;;5.47;;
1446;SDS011;717;51.522;7.266;2024-01-15T10:08:13;10.77;;;7.43;;
1446;SDS011;717;51.522;7.266;2024-01-15T10:10:47;11.47;;;7.57;;
1446;SDS011;717;51.522;7.266;2024-01-15T10:13:17;10.23;;;7.57;;
1446;SDS011;717;51.522;7.266;2024-01-15T10:15:47;12.27;;;7.40;;
1446;SDS011;717;51.522;7.266;2024-01-15T10:18:17;8.73;;;6.47;;
1446;SDS011;717;51.522;7.266;2024-01-15T10:20:48;9.33;;;6.70;;
1446;SDS011;717;51.522;7.266;2024-01-15T10:23:18;8.13;;;6.03;;
1446;SDS011;717;51.522;7.266;2024-01-15T10:25:52;9.13;;;6.43;;
1446;SDS011;717;51.522;7.266;2024-01-15T10:28:22;10.93;;;7.47;;
1446;SDS011;717;51.522;7.266;2024-01-15T10:30:57;12.43;;;9.73;;
1446;SDS011;717;51.522;7.266;2024-01-15T10:33:28;11.00;;;7.37;;
1446;SDS011;717;51.522;7.266;2024-01-15T10:35:59;9.57;;;7.37;;
1446;SDS011;717;51.522;7.266;2024-01-15T10:38:30;6.80;;;5.13;;
1446;SDS011;717;51.522;7.266;2024-01-15T10:41:03;12.00;;;8.37;;
1446;SDS011;717;51.522;7.266;2024-01-15T10:43:33;13.60;;;9.40;;
1446;SDS011;717;51.522;7.266;2024-01-15T10:46:03;10.77;;;8.30;;
1446;SDS011;717;51.522;7.266;2024-01-15T10:48:33;14.40;;;11.03;;
1446;SDS011;717;51.522;7.266;2024-01-15T10:51:04;13.23;;;10.50;;
1446;SDS011;717;51.522;7.266;2024-01-15T10:53:38;12.83;;;8.67;;
1446;SDS011;717;51.522;7.266;2024-01-15T10:56:11;11.93;;;8.17;;
1446;SDS011;717;51.522;7.266;2024-01-15T10:58:43;10.57;;;7.53;;
1446;SDS011;717;51.522;7.266;2024-01-15T11:01:13;14.67;;;9.30;;
1446;SDS011;717;51.522;7.266;2024-01-15T11:03:44;13.13;;;8.57;;
1446;SDS011;717;51.522;7.266;2024-01-15T11:06:17;11.83;;;7.33;;
1446;SDS011;717;51.522;7.266;2024-01-15T11:08:48;12.60;;;8.67;;
1446;SDS011;717;51.522;7.266;2024-01-15T11:11:21;12.20;;;8.57;;
1446;SDS011;717;51.522;7.266;2024-01-15T11:13:51;11.60;;;8.60;;
1446;SDS011;717;51.522;7.266;2024-01-15T11:16:22;12.37;;;9.10;;
1446;SDS011;717;51.522;7.266;2024-01-15T11:19:02;11.57;;;8.63;;
1446;SDS011;717;51.522;7.266;2024-01-15T11:21:35;10.10;;;7.17;;
1446;SDS011;717;51.522;7.266;2024-01-15T11:24:11;10.47;;;7.63;;
1446;SDS011;717;51.522;7.266;2024-01-15T11:27:08;11.13;;;7.70;;
1446;SDS011;717;51.522;7.266;2024-01-15T11:29:38;13.03;;;9.10;;
1446;SDS011;717;51.522;7.266;2024-01-15T11:32:06;13.20;;;8.33;;
1446;SDS011;717;51.522;7.266;2024-01-15T11:34:49;14.27;;;10.90;;
1446;SDS011;717;51.522;7.266;2024-01-15T11:37:18;12.17;;;6.87;;
1446;SDS011;717;51.522;7.266;2024-01-15T11:39:50;12.63;;;7.80;;
1446;SDS011;717;51.522;7.266;2024-01-15T11:42:24;10.00;;;5.60;;
1446;SDS011;717;51.522;7.266;2024-01-15T11:44:54;12.73;;;7.10;;
1446;SDS011;717;51.522;7.266;2024-01-15T11:47:34;5.57;;;3.17;;
1446;SDS011;717;51.522;7.266;2024-01-15T11:50:27;9.17;;;5.63;;
1446;SDS011;717;51.522;7.266;2024-01-15T11:53:00;7.97;;;5.73;;
1446;SDS011;717;51.522;7.266;2024-01-15T11:55:33;9.50;;;4.83;;
1446;SDS011;717;51.522;7.266;2024-01-15T11:58:06;7.97;;;4.60;;
1446;SDS011;717;51.522;7.266;2024-01-15T12:00:42;11.90;;;5.30;;
1446;SDS011;717;51.522;7.266;2024-01-15T12:03:13;8.57;;;7.07;;
1446;SDS011;717;51.522;7.266;2024-01-15T12:05:43;8.00;;;5.93;;
1446;SDS011;717;51.522;7.266;2024-01-15T12:08:13;4.53;;;3.60;;
1446;SDS011;717;51.522;7.266;2024-01-15T12:10:43;8.93;;;7.03;;
1446;SDS011;717;51.522;7.266;2024-01-15T12:13:16;6.67;;;4.10;;
1446;SDS011;717;51.522;7.266;2024-01-15T12:15:47;7.03;;;5.77;;
1446;SDS011;717;51.522;7.266;2024-01-15T12:18:18;4.33;;;2.03;;
1446;SDS011;717;51.522;7.266;2024-01-15T12:20:48;11.60;;;6.30;;
1446;SDS011;717;51.522;7.266;2024-01-15T12:23:19;8.47;;;5.87;;
1446;SDS011;717;51.522;7.266;2024-01-15T12:25:49;9.23;;;6.30;;
1446;SDS011;717;51.522;7.266;2024-01-15T12:28:22;10.40;;;6.40;;
1446;SDS011;717;51.522;7.266;2024-01-15T12:30:52;5.07;;;3.83;;
1446;SDS011;717;51.522;7.266;2024-01-15T12:33:22;7.57;;;5.50;;
1446;SDS011;717;51.522;7.266;2024-01-15T12:35:52;11.67;;;8.17;;
1446;SDS011;717;51.522;7.266;2024-01-15T12:38:25;12.43;;;8.50;;
1446;SDS011;717;51.522;7.266;2024-01-15T12:40:59;8.73;;;6.23;;
1446;SDS011;717;51.522;7.266;2024-01-15T12:43:32;8.73;;;5.73;;
1446;SDS011;717;51.522;7.266;2024-01-15T12:46:02;11.60;;;6.47;;
1446;SDS011;717;51.522;7.266;2024-01-15T12:48:33;9.03;;;6.93;;
1446;SDS011;717;51.522;7.266;2024-01-15T12:51:05;9.87;;;6.23;;
1446;SDS011;717;51.522;7.266;2024-01-15T12:53:35;9.33;;;5.50;;
1446;SDS011;717;51.522;7.266;2024-01-15T12:56:06;6.63;;;4.27;;
1446;SDS011;717;51.522;7.266;2024-01-15T12:58:38;4.97;;;3.73;;
1446;SDS011;717;51.522;7.266;2024-01-15T13:01:08;9.57;;;6.23;;
1446;SDS011;717;51.522;7.266;2024-01-15T13:03:39;8.17;;;5.13;;
1446;SDS011;717;51.522;7.266;2024-01-15T13:06:09;6.50;;;4.73;;
1446;SDS011;717;51.522;7.266;2024-01-15T13:08:39;6.37;;;5.43;;
1446;SDS011;717;51.522;7.266;2024-01-15T13:11:09;6.53;;;4.20;;
1446;SDS011;717;51.522;7.266;2024-01-15T13:13:42;7.50;;;5.10;;
1446;SDS011;717;51.522;7.266;2024-01-15T13:16:14;4.70;;;4.03;;
1446;SDS011;717;51.522;7.266;2024-01-15T13:18:44;4.90;;;3.23;;
1446;SDS011;717;51.522;7.266;2024-01-15T13:21:14;5.57;;;4.10;;
1446;SDS011;717;51.522;7.266;2024-01-15T13:23:44;7.07;;;4.50;;
1446;SDS011;717;51.522;7.266;2024-01-15T13:26:14;7.87;;;5.50;;
1446;SDS011;717;51.522;7.266;2024-01-15T13:28:47;10.50;;;5.83;;
1446;SDS011;717;51.522;7.266;2024-01-15T13:31:17;8.60;;;5.93;;
1446;SDS011;717;51.522;7.266;2024-01-15T13:33:47;10.13;;;5.77;;
1446;SDS011;717;51.522;7.266;2024-01-15T13:36:17;14.10;;;5.43;;
1446;SDS011;717;51.522;7.266;2024-01-15T13:38:48;11.30;;;5.80;;
1446;SDS011;717;51.522;7.266;2024-01-15T13:41:18;4.97;;;3.30;;
1446;SDS011;717;51.522;7.266;2024-01-15T13:43:54;8.37;;;3.90;;
1446;SDS011;717;51.522;7.266;2024-01-15T13:46:25;7.23;;;4.10;;
1446;SDS011;717;51.522;7.266;2024-01-15T13:48:56;5.57;;;3.17;;
1446;SDS011;717;51.522;7.266;2024-01-15T13:51:26;4.67;;;2.37;;
1446;SDS011;717;51.522;7.266;2024-01-15T13:53:56;5.53;;;2.60;;
1446;SDS011;717;51.522;7.266;2024-01-15T13:56:26;3.80;;;2.30;;
1446;SDS011;717;51.522;7.266;2024-01-15T13:59:01;3.20;;;2.47;;
1446;SDS011;717;51.522;7.266;2024-01-15T14:01:32;5.40;;;2.33;;
1446;SDS011;717;51.522;7.266;2024-01-15T14:04:02;5.57;;;2.23;;
1446;SDS011;717;51.522;7.266;2024-01-15T14:06:33;5.17;;;2.10;;
1446;SDS011;717;51.522;7.266;2024-01-15T14:09:03;2.53;;;1.80;;
1446;SDS011;717;51.522;7.266;2024-01-15T14:11:36;4.07;;;1.83;;
1446;SDS011;717;51.522;7.266;2024-01-15T14:14:09;2.50;;;2.30;;
1446;SDS011;717;51.522;7.266;2024-01-15T14:16:39;7.57;;;2.03;;
1446;SDS011;717;51.522;7.266;2024-01-15T14:19:09;3.37;;;1.73;;
1446;SDS011;717;51.522;7.266;2024-01-15T14:21:39;5.63;;;2.47;;
1446;SDS011;717;51.522;7.266;2024-01-15T14:24:09;2.60;;;1.87;;
1446;SDS011;717;51.522;7.266;2024-01-15T14:26:39;2.50;;;2.30;;
1446;SDS011;717;51.522;7.266;2024-01-15T14:29:12;5.60;;;2.20;;
1446;SDS011;717;51.522;7.266;2024-01-15T14:31:42;4.50;;;2.27;;
1446;SDS011;717;51.522;7.266;2024-01-15T14:34:13;3.87;;;2.10;;
1446;SDS011;717;51.522;7.266;2024-01-15T14:36:45;3.10;;;2.20;;
1446;SDS011;717;51.522;7.266;2024-01-15T14:39:16;7.03;;;3.17;;
1446;SDS011;717;51.522;7.266;2024-01-15T14:41:47;3.37;;;2.60;;
1446;SDS011;717;51.522;7.266;2024-01-15T14:44:20;7.30;;;3.80;;
1446;SDS011;717;51.522;7.266;2024-01-15T14:46:50;3.00;;;1.67;;
1446;SDS011;717;51.522;7.266;2024-01-15T14:49:21;8.40;;;3.80;;
1446;SDS011;717;51.522;7.266;2024-01-15T14:51:51;6.17;;;4.37;;
1446;SDS011;717;51.522;7.266;2024-01-15T14:54:21;2.00;;;1.73;;
1446;SDS011;717;51.522;7.266;2024-01-15T14:56:52;4.30;;;3.13;;
1446;SDS011;717;51.522;7.266;2024-01-15T14:59:26;4.80;;;2.47;;
1446;SDS011;717;51.522;7.266;2024-01-15T15:01:56;1.87;;;1.77;;
1446;SDS011;717;51.522;7.266;2024-01-15T15:04:26;2.27;;;2.00;;
1446;SDS011;717;51.522;7.266;2024-01-15T15:06:58;6.93;;;1.77;;
1446;SDS011;717;51.522;7.266;2024-01-15T15:09:28;3.23;;;1.90;;
1446;SDS011;717;51.522;7.266;2024-01-15T15:11:58;3.50;;;2.10;;
1446;SDS011;717;51.522;7.266;2024-01-15T15:14:32;4.27;;;1.67;;
1446;SDS011;717;51.522;7.266;2024-01-15T15:17:17;2.97;;;1.80;;
1446;SDS011;717;51.522;7.266;2024-01-15T15:19:47;3.40;;;1.23;;
1446;SDS011;717;51.522;7.266;2024-01-15T15:22:20;0.80;;;0.80;;
1446;SDS011;717;51.522;7.266;2024-01-15T15:24:50;4.80;;;2.20;;
1446;SDS011;717;51.522;7.266;2024-01-15T15:27:21;3.77;;;2.07;;
1446;SDS011;717;51.522;7.266;2024-01-15T15:29:56;3.47;;;2.00;;
1446;SDS011;717;51.522;7.266;2024-01-15T15:32:26;8.27;;;2.10;;
1446;SDS011;717;51.522;7.266;2024-01-15T15:34:56;3.13;;;1.57;;
1446;SDS011;717;51.522;7.266;2024-01-15T15:37:26;1.57;;;1.03;;
1446;SDS011;717;51.522;7.266;2024-01-15T15:39:56;2.30;;;1.13;;
1446;SDS011;717;51.522;7.266;2024-01-15T15:42:27;4.53;;;1.30;;